Time;durP1;ratioP1;P1;durP2;ratioP2;P2;SDS_P1;SDS_P2;PMS_P1;PMS_P2;Temp;Humidity;BMP_temperature;BMP_pressure;BME280_temperature;BME280_humidity;BME280_pressure;Samples;Min_cycle;Max_cycle;Signal;HPM_P1;HPM_P2
2023/09/05 00:02:15;;;;;;;10.73;9.43;;;;;;;18.60;100.00;101178.44;5053356;28;20044;-88
2023/09/05 00:04:44;;;;;;;10.05;8.40;;;;;;;18.54;100.00;101179.34;5020351;28;20029;-88
2023/09/05 00:07:11;;;;;;;9.77;8.73;;;;;;;18.58;100.00;101184.13;5037105;28;20543;-89
2023/09/05 00:09:36;;;;;;;11.52;8.48;;;;;;;18.58;100.00;101170.53;5053009;28;20029;-90
2023/09/05 00:12:06;;;;;;;10.45;8.63;;;;;;;18.50;100.00;101172.63;5053084;28;20082;-88
2023/09/05 00:14:33;;;;;;;12.10;9.30;;;;;;;18.44;100.00;101186.09;5053079;28;20473;-88
2023/09/05 00:16:59;;;;;;;11.65;9.57;;;;;;;18.39;100.00;101176.88;5036669;28;20040;-90
2023/09/05 00:19:24;;;;;;;11.15;9.85;;;;;;;18.36;100.00;101183.59;5069803;28;20025;-88
2023/09/05 00:21:50;;;;;;;11.93;9.35;;;;;;;18.28;100.00;101170.25;5052807;28;20040;-89
2023/09/05 00:24:25;;;;;;;12.65;9.95;;;;;;;18.22;100.00;101171.13;5052673;28;20112;-88
2023/09/05 00:26:52;;;;;;;13.00;10.15;;;;;;;18.16;100.00;101172.00;5053045;28;20036;-88
2023/09/05 00:29:20;;;;;;;13.10;9.38;;;;;;;18.13;100.00;101167.00;5051989;28;20033;-88
2023/09/05 00:31:49;;;;;;;11.88;9.85;;;;;;;18.07;100.00;101174.09;5052963;28;20072;-88
2023/09/05 00:34:15;;;;;;;10.80;9.70;;;;;;;18.05;100.00;101172.66;5036382;28;20094;-88
2023/09/05 00:36:42;;;;;;;11.40;10.20;;;;;;;17.96;100.00;101178.31;5035850;28;20485;-88
2023/09/05 00:39:09;;;;;;;11.40;10.18;;;;;;;17.98;100.00;101175.41;5052876;28;20123;-89
2023/09/05 00:41:37;;;;;;;14.43;11.50;;;;;;;17.95;100.00;101162.22;5069218;28;20037;-88
2023/09/05 00:44:03;;;;;;;14.02;11.40;;;;;;;18.02;100.00;101163.88;5053044;28;20039;-88
2023/09/05 00:46:29;;;;;;;13.15;11.75;;;;;;;17.99;100.00;101169.75;5069542;28;20028;-88
2023/09/05 00:48:57;;;;;;;12.43;11.13;;;;;;;18.07;100.00;101160.50;5052683;28;20555;-89
2023/09/05 00:51:25;;;;;;;15.25;11.02;;;;;;;18.06;100.00;101163.44;5052812;28;20039;-89
2023/09/05 00:53:51;;;;;;;15.02;11.30;;;;;;;17.97;100.00;101165.59;5036181;28;20037;-88
2023/09/05 00:56:17;;;;;;;11.90;10.18;;;;;;;17.95;100.00;101171.22;5035672;28;20058;-88
2023/09/05 00:58:43;;;;;;;12.60;9.95;;;;;;;17.90;100.00;101164.75;5036078;28;20083;-88
2023/09/05 01:01:08;;;;;;;12.77;10.65;;;;;;;17.89;100.00;101168.50;5052302;28;20540;-88
2023/09/05 01:03:34;;;;;;;12.20;10.18;;;;;;;17.80;100.00;101151.59;5035775;28;20531;-88
2023/09/05 01:06:04;;;;;;;10.60;9.50;;;;;;;17.80;100.00;101159.75;5052236;28;20029;-86
2023/09/05 01:08:38;;;;;;;11.93;9.73;;;;;;;17.78;100.00;101159.97;5036557;28;20103;-88
2023/09/05 01:11:08;;;;;;;11.02;9.65;;;;;;;17.74;100.00;101155.16;5052749;28;20037;-88
2023/09/05 01:13:37;;;;;;;13.07;10.27;;;;;;;17.71;100.00;101148.25;5052223;28;20029;-88
2023/09/05 01:16:04;;;;;;;13.27;10.23;;;;;;;17.67;100.00;101140.72;5052302;28;20067;-88
2023/09/05 01:18:33;;;;;;;12.13;10.57;;;;;;;17.66;100.00;101141.78;5052179;28;20029;-88
2023/09/05 01:21:26;;;;;;;13.07;10.63;;;;;;;17.79;100.00;101139.06;5036133;28;20102;-88
2023/09/05 01:24:08;;;;;;;11.45;9.38;;;;;;;17.89;100.00;101134.00;5052451;28;20033;-88
2023/09/05 01:26:34;;;;;;;12.93;10.43;;;;;;;17.93;100.00;101142.56;5035969;28;20035;-88
2023/09/05 01:29:00;;;;;;;11.35;9.55;;;;;;;18.00;100.00;101144.22;5051970;28;20033;-88
2023/09/05 01:31:26;;;;;;;11.32;9.80;;;;;;;17.88;100.00;101135.03;5052671;28;20029;-88
2023/09/05 01:33:52;;;;;;;12.20;10.30;;;;;;;17.90;100.00;101140.28;5035779;28;20043;-88
2023/09/05 01:36:17;;;;;;;13.73;10.82;;;;;;;17.90;100.00;101138.38;5035613;28;20124;-88
2023/09/05 01:38:43;;;;;;;12.80;10.88;;;;;;;17.80;100.00;101135.28;5053046;28;20482;-88
2023/09/05 01:41:09;;;;;;;12.27;10.43;;;;;;;17.79;100.00;101126.28;5071041;28;20033;-87
2023/09/05 01:43:34;;;;;;;12.88;10.13;;;;;;;17.76;100.00;101120.41;5055686;28;20495;-88
2023/09/05 01:46:00;;;;;;;11.73;10.38;;;;;;;17.73;100.00;101113.53;5071957;28;20025;-88
2023/09/05 01:48:26;;;;;;;13.50;9.90;;;;;;;17.63;100.00;101112.31;5055660;28;20463;-88
2023/09/05 01:50:51;;;;;;;13.93;10.50;;;;;;;17.61;100.00;101106.25;5055171;28;20033;-88
2023/09/05 01:53:17;;;;;;;12.90;10.57;;;;;;;17.53;100.00;101104.59;5055262;28;20037;-87
2023/09/05 01:55:42;;;;;;;10.82;9.40;;;;;;;17.43;100.00;101102.31;5055641;28;20036;-87
2023/09/05 01:58:08;;;;;;;11.18;9.15;;;;;;;17.40;100.00;101097.28;5056457;28;20021;-87
2023/09/05 02:00:34;;;;;;;10.85;9.23;;;;;;;17.39;100.00;101095.63;5039325;28;20037;-88
2023/09/05 02:02:59;;;;;;;15.07;9.70;;;;;;;17.42;100.00;101097.09;5055069;28;20383;-88
2023/09/05 02:05:25;;;;;;;13.18;11.40;;;;;;;17.42;100.00;101091.66;5038527;28;20043;-88
2023/09/05 02:07:50;;;;;;;13.15;9.73;;;;;;;17.47;100.00;101094.56;5038795;28;20395;-88
2023/09/05 02:10:16;;;;;;;9.93;8.65;;;;;;;17.55;100.00;101095.16;5038480;28;20040;-87
2023/09/05 02:12:44;;;;;;;9.75;8.52;;;;;;;17.51;100.00;101088.47;5055197;28;20155;-87
2023/09/05 02:15:10;;;;;;;10.60;8.63;;;;;;;17.52;100.00;101089.34;5038647;28;20025;-87
2023/09/05 02:17:36;;;;;;;9.65;8.43;;;;;;;17.40;100.00;101078.25;5038755;28;20044;-87
2023/09/05 02:20:03;;;;;;;10.07;9.05;;;;;;;17.38;100.00;101071.38;5054953;28;20041;-88
2023/09/05 02:22:29;;;;;;;11.07;8.77;;;;;;;17.34;100.00;101079.13;5038782;28;20056;-87
2023/09/05 02:24:54;;;;;;;10.07;8.52;;;;;;;17.28;100.00;101077.25;5054813;28;20056;-88
2023/09/05 02:27:20;;;;;;;11.02;9.18;;;;;;;17.28;100.00;101079.97;5038193;28;20478;-87
2023/09/05 02:30:01;;;;;;;10.15;9.05;;;;;;;17.35;100.00;101083.50;5054681;28;20080;-88
2023/09/05 02:32:29;;;;;;;9.80;8.38;;;;;;;17.44;100.00;101065.94;5040246;28;20060;-88
2023/09/05 02:34:56;;;;;;;10.30;8.20;;;;;;;17.46;100.00;101066.53;5054874;28;20029;-87
2023/09/05 02:37:21;;;;;;;10.88;7.63;;;;;;;17.51;100.00;101055.84;5054433;28;20032;-87
2023/09/05 02:39:47;;;;;;;9.63;8.63;;;;;;;17.61;100.00;101055.41;5038139;28;20032;-88
2023/09/05 02:42:13;;;;;;;10.13;8.45;;;;;;;17.65;100.00;101050.34;5054775;28;20387;-87
2023/09/05 02:44:38;;;;;;;11.30;7.93;;;;;;;17.73;100.00;101058.28;5054608;28;20102;-87
2023/09/05 02:47:04;;;;;;;11.38;9.32;;;;;;;17.77;100.00;101054.09;5054647;28;20392;-88
2023/09/05 02:49:30;;;;;;;9.35;8.35;;;;;;;17.71;100.00;101055.78;5054199;28;20434;-88
2023/09/05 02:51:59;;;;;;;10.60;9.48;;;;;;;17.64;100.00;101045.97;5036959;28;20678;-87
2023/09/05 02:54:28;;;;;;;10.82;8.05;;;;;;;17.61;100.00;101049.13;5054959;28;20445;-88
2023/09/05 02:56:54;;;;;;;11.02;8.85;;;;;;;17.54;100.00;101044.56;5038030;28;20395;-87
2023/09/05 02:59:21;;;;;;;11.23;8.70;;;;;;;17.45;100.00;101043.13;5054400;28;20056;-88
2023/09/05 03:01:46;;;;;;;9.15;7.70;;;;;;;17.41;100.00;101039.19;5037753;28;20048;-87
2023/09/05 03:04:14;;;;;;;8.73;7.72;;;;;;;17.34;100.00;101038.34;5054346;28;20029;-87
2023/09/05 03:06:40;;;;;;;9.38;8.38;;;;;;;17.32;100.00;101037.72;5037862;28;20442;-87
2023/09/05 03:09:05;;;;;;;9.88;8.18;;;;;;;17.31;100.00;101033.34;5054241;28;20032;-87
2023/09/05 03:11:31;;;;;;;9.38;7.72;;;;;;;17.26;100.00;101034.00;5037556;28;20037;-88
2023/09/05 03:13:56;;;;;;;9.52;8.57;;;;;;;17.14;100.00;101031.06;5037720;28;20037;-86
2023/09/05 03:16:23;;;;;;;10.73;9.50;;;;;;;17.17;100.00;101026.25;5037750;28;20090;-87
2023/09/05 03:18:49;;;;;;;9.57;7.80;;;;;;;17.15;100.00;101034.66;5038217;28;20039;-88
2023/09/05 03:21:15;;;;;;;10.77;8.43;;;;;;;17.02;100.00;101032.78;5054595;28;20120;-87
2023/09/05 03:23:41;;;;;;;10.88;8.38;;;;;;;16.91;100.00;101038.88;5053515;28;20108;-88
2023/09/05 03:26:06;;;;;;;11.65;10.45;;;;;;;16.99;100.00;101040.50;5037224;28;20036;-88
2023/09/05 03:28:41;;;;;;;13.02;10.30;;;;;;;17.09;100.00;101049.06;5053730;28;20064;-88
2023/09/05 03:31:06;;;;;;;11.10;9.70;;;;;;;17.04;100.00;101055.16;5070900;28;20037;-88
2023/09/05 03:33:32;;;;;;;12.27;8.77;;;;;;;16.92;100.00;101057.66;5054132;28;20033;-87
2023/09/05 03:35:58;;;;;;;12.10;8.95;;;;;;;16.88;100.00;101047.41;5053283;28;20040;-88
2023/09/05 03:38:23;;;;;;;11.02;9.80;;;;;;;16.92;100.00;101052.22;5053716;28;20025;-89
2023/09/05 03:40:49;;;;;;;11.57;9.20;;;;;;;16.96;100.00;101046.38;5053340;28;20032;-88
2023/09/05 03:43:14;;;;;;;12.48;9.45;;;;;;;16.95;100.00;101037.38;5070169;28;20036;-88
2023/09/05 03:45:40;;;;;;;11.15;8.77;;;;;;;16.98;100.00;101045.09;5036562;28;20036;-88
2023/09/05 03:48:06;;;;;;;13.15;8.88;;;;;;;16.94;100.00;101038.44;5053139;28;20097;-88
2023/09/05 03:50:32;;;;;;;10.85;8.90;;;;;;;16.84;100.00;101038.88;5053400;28;20028;-88
2023/09/05 03:52:57;;;;;;;12.73;8.80;;;;;;;16.79;100.00;101045.97;5053188;28;20391;-88
2023/09/05 03:55:23;;;;;;;12.85;9.77;;;;;;;16.67;100.00;101048.44;5036420;28;20037;-88
2023/09/05 03:57:49;;;;;;;13.95;9.05;;;;;;;16.54;100.00;101037.56;5053234;28;20102;-87
2023/09/05 04:00:15;;;;;;;11.85;9.13;;;;;;;16.44;100.00;101052.41;5020220;28;20052;-87
2023/09/05 04:02:40;;;;;;;12.18;8.77;;;;;;;16.39;100.00;101054.06;5036508;28;20383;-88
2023/09/05 04:05:08;;;;;;;13.65;9.63;;;;;;;16.31;100.00;101055.09;5053330;28;20479;-88
2023/09/05 04:07:34;;;;;;;13.95;9.65;;;;;;;16.26;100.00;101054.88;5053380;28;20527;-88
2023/09/05 04:10:00;;;;;;;10.45;9.10;;;;;;;16.29;100.00;101046.31;5036428;28;20123;-88
2023/09/05 04:12:25;;;;;;;13.75;9.88;;;;;;;16.33;100.00;101058.47;5052736;28;20032;-87
2023/09/05 04:14:51;;;;;;;11.75;9.68;;;;;;;16.30;100.00;101056.16;5052756;28;20033;-88
2023/09/05 04:17:16;;;;;;;12.10;10.07;;;;;;;16.32;100.00;101055.94;5036480;28;20036;-87
2023/09/05 04:19:42;;;;;;;11.57;9.38;;;;;;;16.36;100.00;101051.78;5052957;28;20044;-88
2023/09/05 04:22:08;;;;;;;11.93;10.18;;;;;;;16.32;100.00;101053.22;5036270;28;20029;-88
2023/09/05 04:24:33;;;;;;;11.07;9.82;;;;;;;16.25;100.00;101043.19;5052338;28;20036;-87
2023/09/05 04:26:59;;;;;;;13.65;10.60;;;;;;;16.19;100.00;101040.47;5036428;28;20386;-87
2023/09/05 04:29:25;;;;;;;12.75;10.23;;;;;;;16.17;100.00;101031.72;5036444;28;20033;-87
2023/09/05 04:31:50;;;;;;;11.93;10.52;;;;;;;16.18;100.00;101036.91;5054354;28;20033;-90
2023/09/05 04:34:16;;;;;;;11.95;9.88;;;;;;;16.18;100.00;101036.91;5069597;28;20112;-87
2023/09/05 04:36:42;;;;;;;14.10;10.05;;;;;;;16.14;100.00;101049.25;5054357;28;20068;-87
2023/09/05 04:39:08;;;;;;;13.35;10.60;;;;;;;16.17;100.00;101039.84;5021729;28;20391;-87
2023/09/05 04:41:33;;;;;;;12.40;9.13;;;;;;;16.13;100.00;101033.16;5037266;28;20490;-87
2023/09/05 04:43:59;;;;;;;13.93;11.00;;;;;;;16.15;100.00;101031.91;5052597;28;20111;-87
2023/09/05 04:46:26;;;;;;;12.63;10.45;;;;;;;16.09;100.00;101024.59;5052540;28;20029;-87
2023/09/05 04:48:53;;;;;;;14.30;11.85;;;;;;;16.10;100.00;101033.56;5036148;28;20033;-87
2023/09/05 04:51:19;;;;;;;12.77;10.40;;;;;;;16.13;100.00;101047.56;5069457;28;20119;-88
2023/09/05 04:53:44;;;;;;;13.98;11.23;;;;;;;16.16;100.00;101047.13;5052280;28;20108;-87
2023/09/05 04:56:10;;;;;;;12.35;11.05;;;;;;;16.18;100.00;101046.94;5036318;28;20494;-87
2023/09/05 04:58:35;;;;;;;13.52;10.90;;;;;;;16.21;100.00;101041.94;5040396;28;20033;-87
2023/09/05 05:01:04;;;;;;;12.10;10.73;;;;;;;16.17;100.00;101040.69;5065928;28;20040;-87
2023/09/05 05:03:33;;;;;;;14.82;10.93;;;;;;;16.12;100.00;101040.47;5041843;28;20037;-87
2023/09/05 05:06:00;;;;;;;14.60;11.25;;;;;;;16.07;100.00;101042.97;5052083;28;20091;-88
2023/09/05 05:08:25;;;;;;;14.57;10.80;;;;;;;16.01;100.00;101046.50;5036040;28;20645;-87
2023/09/05 05:10:51;;;;;;;14.98;12.30;;;;;;;15.95;100.00;101050.00;5035962;28;20083;-88
2023/09/05 05:13:19;;;;;;;16.42;11.93;;;;;;;15.93;100.00;101052.94;5052293;28;20037;-87
2023/09/05 05:15:46;;;;;;;19.80;13.82;;;;;;;15.90;100.00;101044.34;5037600;28;20037;-87
2023/09/05 05:18:12;;;;;;;14.57;12.90;;;;;;;15.83;100.00;101041.63;5039940;28;20056;-88
2023/09/05 05:20:37;;;;;;;17.10;12.98;;;;;;;15.79;100.00;101049.31;5056221;28;20118;-88
2023/09/05 05:23:04;;;;;;;17.38;13.93;;;;;;;15.76;100.00;101049.72;5039606;28;20029;-88
2023/09/05 05:25:30;;;;;;;24.33;15.25;;;;;;;15.74;100.00;101046.38;5056296;28;20064;-87
2023/09/05 05:27:55;;;;;;;20.23;15.77;;;;;;;15.77;100.00;101051.44;5056594;28;20521;-87
2023/09/05 05:30:21;;;;;;;23.02;14.43;;;;;;;15.76;100.00;101049.72;5055939;28;20067;-87
2023/09/05 05:32:47;;;;;;;19.15;13.77;;;;;;;15.76;100.00;101043.47;5055721;28;20029;-88
2023/09/05 05:35:13;;;;;;;21.30;14.95;;;;;;;15.79;100.00;101049.31;5039649;28;20098;-87
2023/09/05 05:37:39;;;;;;;19.20;14.73;;;;;;;15.82;100.00;101051.66;5055903;28;20021;-87
2023/09/05 05:40:05;;;;;;;19.05;14.70;;;;;;;15.76;100.00;101049.72;5055775;28;20029;-87
2023/09/05 05:42:31;;;;;;;20.85;16.73;;;;;;;15.78;100.00;101061.22;5039293;28;20527;-87
2023/09/05 05:44:56;;;;;;;19.83;13.77;;;;;;;15.75;100.00;101058.09;5055856;28;20104;-87
2023/09/05 05:47:22;;;;;;;23.02;18.90;;;;;;;15.80;100.00;101053.72;5055816;28;20037;-87
2023/09/05 05:49:48;;;;;;;21.48;15.07;;;;;;;15.79;100.00;101051.22;5072809;28;20059;-87
2023/09/05 05:52:14;;;;;;;21.88;15.90;;;;;;;15.75;100.00;101058.09;5055334;28;20468;-87
2023/09/05 05:54:39;;;;;;;21.30;16.30;;;;;;;15.66;100.00;101056.53;5044633;28;20037;-87
2023/09/05 05:57:05;;;;;;;21.20;17.08;;;;;;;15.72;100.00;101062.03;5077702;28;20403;-88
2023/09/05 05:59:30;;;;;;;19.80;14.20;;;;;;;15.73;100.00;101079.13;5059549;28;20028;-89
2023/09/05 06:01:56;;;;;;;22.38;15.25;;;;;;;15.74;100.00;101070.78;5039786;28;20040;-88
2023/09/05 06:04:23;;;;;;;20.70;14.63;;;;;;;15.76;100.00;101071.44;5039171;28;20036;-88
2023/09/05 06:06:49;;;;;;;26.63;17.80;;;;;;;15.87;100.00;101071.88;5056752;28;20029;-88
2023/09/05 06:09:18;;;;;;;21.63;15.52;;;;;;;15.96;100.00;101082.38;5038950;28;20133;-90
2023/09/05 06:11:44;;;;;;;19.38;14.55;;;;;;;16.02;100.00;101086.13;5039088;28;20037;-87
2023/09/05 06:14:10;;;;;;;22.77;14.75;;;;;;;16.02;100.00;101088.84;5055559;28;20036;-88
2023/09/05 06:16:36;;;;;;;20.75;15.32;;;;;;;16.08;100.00;101093.44;5054928;28;20044;-88
2023/09/05 06:19:02;;;;;;;22.90;14.25;;;;;;;16.15;100.00;101096.19;5038590;28;20475;-88
2023/09/05 06:21:31;;;;;;;23.15;15.52;;;;;;;16.23;100.00;101099.53;5037347;28;20075;-88
2023/09/05 06:23:58;;;;;;;21.48;16.35;;;;;;;16.34;100.00;101102.69;5053408;28;20037;-88
2023/09/05 06:26:24;;;;;;;19.85;15.38;;;;;;;16.47;100.00;101100.84;5052951;28;20028;-87
2023/09/05 06:28:51;;;;;;;23.02;15.40;;;;;;;16.56;100.00;101100.66;5052463;28;20395;-88
2023/09/05 06:31:17;;;;;;;20.17;15.38;;;;;;;16.65;100.00;101100.25;5036860;28;20467;-88
2023/09/05 06:33:42;;;;;;;22.17;15.38;;;;;;;16.72;100.00;101100.25;5036793;28;20114;-88
2023/09/05 06:36:11;;;;;;;17.83;13.32;;;;;;;16.81;100.00;101104.47;5036810;28;20028;-88
2023/09/05 06:38:36;;;;;;;19.13;15.63;;;;;;;16.85;100.00;101099.44;5021229;28;20033;-88
2023/09/05 06:41:06;;;;;;;20.27;17.90;;;;;;;16.88;100.00;101102.59;5038374;28;20132;-87
2023/09/05 06:43:38;;;;;;;21.35;14.70;;;;;;;16.87;100.00;101098.19;5054386;28;20029;-87
2023/09/05 06:46:04;;;;;;;22.08;15.88;;;;;;;16.90;100.00;101105.09;5055469;28;20025;-87
2023/09/05 06:48:30;;;;;;;22.30;15.73;;;;;;;16.96;100.00;101106.94;5038078;28;20029;-87
2023/09/05 06:50:59;;;;;;;21.75;16.20;;;;;;;17.01;100.00;101103.63;5054630;28;20056;-89
2023/09/05 06:53:28;;;;;;;23.52;15.50;;;;;;;17.06;100.00;101095.69;5021829;28;20033;-87
2023/09/05 06:55:54;;;;;;;21.73;15.93;;;;;;;17.09;100.00;101098.81;5054663;28;20031;-87
2023/09/05 06:58:23;;;;;;;19.63;15.40;;;;;;;17.12;100.00;101095.69;5037999;28;20045;-88
2023/09/05 07:00:55;;;;;;;20.88;14.85;;;;;;;17.16;100.00;101096.09;5054195;28;20034;-88
2023/09/05 07:03:22;;;;;;;21.10;14.40;;;;;;;17.20;100.00;101093.78;5038836;28;20029;-87
2023/09/05 07:05:48;;;;;;;19.33;14.93;;;;;;;17.22;100.00;101088.97;5054324;28;20545;-88
2023/09/05 07:08:14;;;;;;;17.63;14.52;;;;;;;17.25;100.00;101091.25;5054483;28;20037;-87
2023/09/05 07:10:47;;;;;;;18.95;16.02;;;;;;;17.26;100.00;101082.91;5054934;28;20032;-88
2023/09/05 07:13:13;;;;;;;19.10;14.13;;;;;;;17.31;100.00;101082.28;5071532;28;20057;-88
2023/09/05 07:15:39;;;;;;;19.77;16.52;;;;;;;17.37;100.00;101089.56;5043048;28;20044;-88
2023/09/05 07:18:05;;;;;;;17.17;14.25;;;;;;;17.45;100.00;101097.50;5057383;28;20029;-88
2023/09/05 07:20:31;;;;;;;17.95;14.07;;;;;;;17.49;100.00;101090.59;5062946;28;20365;-86
2023/09/05 07:22:57;;;;;;;18.63;14.00;;;;;;;17.57;100.00;101081.34;5045777;28;20033;-86
2023/09/05 07:25:23;;;;;;;18.02;14.23;;;;;;;17.65;100.00;101092.00;5046252;28;20422;-87
2023/09/05 07:27:48;;;;;;;21.17;14.05;;;;;;;17.71;100.00;101087.59;5039355;28;20029;-88
2023/09/05 07:30:16;;;;;;;18.63;15.63;;;;;;;17.71;100.00;101080.25;5055315;28;20025;-87
2023/09/05 07:32:42;;;;;;;19.15;14.25;;;;;;;17.75;100.00;101070.59;5038322;28;20024;-88
2023/09/05 07:35:08;;;;;;;17.25;12.68;;;;;;;17.75;100.00;101072.50;5037747;28;20031;-88
2023/09/05 07:37:34;;;;;;;17.60;14.25;;;;;;;17.70;100.00;101061.44;5054369;28;20107;-89
2023/09/05 07:39:59;;;;;;;17.55;14.13;;;;;;;17.64;100.00;101045.97;5037631;28;20036;-88
2023/09/05 07:42:27;;;;;;;17.73;13.38;;;;;;;17.67;100.00;101042.81;5037350;28;20091;-87
2023/09/05 07:44:53;;;;;;;17.45;13.23;;;;;;;17.66;100.00;101042.00;5037638;28;20455;-87
2023/09/05 07:47:18;;;;;;;21.27;13.95;;;;;;;17.65;100.00;101034.91;5036312;28;20079;-89
2023/09/05 07:49:44;;;;;;;16.38;12.75;;;;;;;17.70;100.00;101032.38;5036899;28;20033;-88
2023/09/05 07:52:10;;;;;;;15.05;13.00;;;;;;;17.72;100.00;101035.69;5053612;28;20040;-88
2023/09/05 07:54:36;;;;;;;16.52;12.98;;;;;;;17.76;100.00;101044.28;5053613;28;20033;-89
2023/09/05 07:57:03;;;;;;;15.05;12.45;;;;;;;17.81;100.00;101041.78;5053092;28;20103;-88
2023/09/05 07:59:29;;;;;;;15.73;12.75;;;;;;;17.92;100.00;101035.63;5053631;28;20059;-88
2023/09/05 08:01:57;;;;;;;17.52;13.40;;;;;;;18.05;100.00;101010.25;5036845;28;20029;-88
2023/09/05 08:04:23;;;;;;;15.23;13.35;;;;;;;18.14;100.00;100986.31;5037000;28;20029;-89
2023/09/05 08:06:49;;;;;;;16.13;13.43;;;;;;;18.29;100.00;100986.00;5036586;28;20029;-88
2023/09/05 08:09:33;;;;;;;14.35;11.20;;;;;;;18.49;100.00;100992.09;5053108;28;20104;-90
2023/09/05 08:12:04;;;;;;;15.02;11.45;;;;;;;18.68;100.00;100999.28;5038121;28;20040;-91
2023/09/05 08:14:30;;;;;;;14.98;12.15;;;;;;;18.79;100.00;100997.75;5053371;28;20025;-89
2023/09/05 08:16:56;;;;;;;16.80;11.48;;;;;;;18.94;100.00;100975.56;5037296;28;20043;-89
2023/09/05 08:19:22;;;;;;;13.77;10.65;;;;;;;19.22;100.00;100976.94;5037256;28;20402;-89
2023/09/05 08:21:48;;;;;;;13.55;10.98;;;;;;;19.37;100.00;100998.34;5087049;28;20025;-92
2023/09/05 08:24:13;;;;;;;12.25;10.23;;;;;;;19.49;100.00;101007.44;5038217;28;20120;-90
2023/09/05 08:26:39;;;;;;;13.50;11.20;;;;;;;19.53;100.00;100984.13;5072620;28;20035;-89
2023/09/05 08:29:06;;;;;;;14.25;10.60;;;;;;;19.56;100.00;100994.56;5053639;28;20107;-91
2023/09/05 08:31:54;;;;;;;13.35;10.30;;;;;;;19.64;100.00;101015.25;5053034;28;20029;-90
2023/09/05 08:34:43;;;;;;;12.20;9.48;;;;;;;19.83;100.00;101024.25;5051480;28;20116;-88
2023/09/05 08:37:08;;;;;;;12.10;10.10;;;;;;;20.02;100.00;101020.41;5034586;28;20117;-88
2023/09/05 08:39:34;;;;;;;12.30;10.32;;;;;;;20.11;100.00;101008.13;5034016;28;20071;-89
2023/09/05 08:42:04;;;;;;;14.48;10.80;;;;;;;20.01;100.00;101001.56;5050372;28;20520;-88
2023/09/05 08:44:30;;;;;;;14.45;10.68;;;;;;;19.76;100.00;100997.06;5067611;28;20033;-87
2023/09/05 08:46:56;;;;;;;12.30;10.18;;;;;;;19.56;100.00;100994.56;5050561;28;20036;-88
2023/09/05 08:49:22;;;;;;;13.98;10.15;;;;;;;19.50;100.00;100990.00;5050621;28;20037;-88
2023/09/05 08:51:49;;;;;;;13.93;9.88;;;;;;;19.60;100.00;100994.94;5035621;28;20479;-88
2023/09/05 08:54:15;;;;;;;13.07;10.02;;;;;;;19.73;100.00;100979.25;5036158;28;20037;-87
2023/09/05 08:56:44;;;;;;;12.20;10.40;;;;;;;19.92;100.00;100965.53;5052747;28;20075;-88
2023/09/05 08:59:10;;;;;;;13.20;10.13;;;;;;;20.16;100.00;100969.16;5036264;28;20087;-88
2023/09/05 09:01:37;;;;;;;14.00;10.32;;;;;;;20.07;100.00;100965.13;5053381;28;20036;-87
2023/09/05 09:04:04;;;;;;;10.00;7.88;;;;;;;19.91;100.00;100917.50;5069198;28;20033;-89
2023/09/05 09:06:31;;;;;;;11.30;9.20;;;;;;;19.62;100.00;100884.53;5036039;28;20048;-88
2023/09/05 09:09:29;;;;;;;10.50;9.18;;;;;;;19.36;100.00;100857.66;5036562;28;20079;-88
2023/09/05 09:11:59;;;;;;;9.77;8.77;;;;;;;19.03;100.00;100808.00;5054093;28;20040;-88
2023/09/05 09:14:25;;;;;;;10.15;9.10;;;;;;;18.92;100.00;100829.72;5037349;28;20036;-87
2023/09/05 09:16:51;;;;;;;11.10;8.73;;;;;;;18.93;100.00;100824.06;5053235;28;20025;-87
2023/09/05 09:19:24;;;;;;;10.88;8.68;;;;;;;18.96;100.00;100820.03;5036182;28;20418;-89
2023/09/05 09:22:08;;;;;;;9.30;8.40;;;;;;;19.00;100.00;100747.66;5054310;28;20035;-90
2023/09/05 09:24:43;;;;;;;8.27;7.32;;;;;;;19.29;100.00;100721.41;5053123;28;20033;-89
2023/09/05 09:27:09;;;;;;;7.88;6.45;;;;;;;19.59;100.00;100755.97;5036515;28;20037;-88
2023/09/05 09:30:00;;;;;;;8.70;7.10;;;;;;;19.93;100.00;100771.56;5036312;28;20450;-90
2023/09/05 09:32:32;;;;;;;8.23;6.35;;;;;;;20.23;100.00;100829.84;5055734;28;20040;-88
2023/09/05 09:34:58;;;;;;;7.60;6.00;;;;;;;20.39;100.00;100870.06;5053492;28;20033;-90
2023/09/05 09:37:25;;;;;;;5.78;4.50;;;;;;;20.73;100.00;100922.22;5052015;28;20360;-89
2023/09/05 09:40:01;;;;;;;7.55;5.72;;;;;;;21.22;100.00;100912.63;5035935;28;20601;-89
2023/09/05 09:42:27;;;;;;;7.35;6.53;;;;;;;21.81;100.00;100942.50;5035618;28;20107;-89
2023/09/05 09:44:53;;;;;;;8.32;6.60;;;;;;;22.95;100.00;100940.47;5052011;28;20029;-89
2023/09/05 09:47:23;;;;;;;9.18;6.40;;;;;;;23.92;100.00;100930.63;5052273;28;20029;-88
2023/09/05 09:49:55;;;;;;;7.40;6.22;;;;;;;23.82;100.00;100969.00;5020776;28;20029;-88
2023/09/05 09:52:21;;;;;;;7.10;6.40;;;;;;;24.22;100.00;100997.94;5051968;28;20085;-89
2023/09/05 09:54:50;;;;;;;7.15;6.32;;;;;;;25.80;88.34;101014.59;5052447;28;20045;-88
2023/09/05 09:57:22;;;;;;;7.60;6.60;;;;;;;27.36;71.30;101018.72;5052679;28;20119;-87
2023/09/05 09:59:56;;;;;;;6.43;5.82;;;;;;;27.18;68.15;101009.97;5052313;28;20555;-88
2023/09/05 10:02:22;;;;;;;6.50;5.50;;;;;;;26.40;70.73;101002.03;5072207;28;20143;-88
2023/09/05 10:04:49;;;;;;;6.88;5.40;;;;;;;25.04;73.26;100982.06;5039527;28;20043;-87
2023/09/05 10:07:15;;;;;;;5.78;5.15;;;;;;;24.17;77.42;100973.16;5039209;28;20459;-87
2023/09/05 10:09:43;;;;;;;6.43;5.13;;;;;;;23.87;80.58;100999.25;5038900;28;20048;-87
2023/09/05 10:12:12;;;;;;;7.20;5.78;;;;;;;23.84;81.85;101003.34;5056528;28;20112;-87
2023/09/05 10:14:47;;;;;;;6.68;5.35;;;;;;;24.09;82.92;101005.50;5058272;28;20037;-91
2023/09/05 10:17:15;;;;;;;7.30;6.60;;;;;;;24.25;77.90;101000.16;5061176;28;20025;-87
2023/09/05 10:20:04;;;;;;;7.70;6.90;;;;;;;24.21;77.62;100999.00;5060971;28;20036;-89
2023/09/05 10:22:43;;;;;;;8.93;6.82;;;;;;;24.16;80.91;101001.72;5050919;28;20025;-87
2023/09/05 10:25:16;;;;;;;9.27;7.15;;;;;;;24.75;78.87;100993.44;5067342;28;20071;-90
2023/09/05 10:27:42;;;;;;;10.45;7.78;;;;;;;25.00;76.11;100981.75;5038644;28;20056;-90
2023/09/05 10:30:12;;;;;;;8.70;7.80;;;;;;;24.46;81.11;100981.97;5053532;28;20104;-88
2023/09/05 10:32:44;;;;;;;10.90;8.40;;;;;;;24.19;82.19;100991.06;5044638;28;20037;-87
2023/09/05 10:35:13;;;;;;;9.68;8.35;;;;;;;24.13;84.22;100983.84;5092499;28;20032;-87
2023/09/05 10:37:51;;;;;;;10.93;8.05;;;;;;;24.59;86.18;100986.19;5047399;28;20037;-87
2023/09/05 10:40:19;;;;;;;9.82;7.78;;;;;;;24.15;87.58;100987.16;5037937;28;20031;-88
2023/09/05 10:42:54;;;;;;;14.00;10.57;;;;;;;24.19;86.07;100995.72;5038790;28;20465;-87
2023/09/05 10:45:23;;;;;;;11.00;8.50;;;;;;;23.67;90.83;100981.44;5054772;28;20133;-88
2023/09/05 10:47:55;;;;;;;9.85;7.90;;;;;;;23.19;97.73;100974.81;5037851;28;20545;-88
2023/09/05 10:50:30;;;;;;;9.98;8.95;;;;;;;23.04;100.00;100966.38;5055284;28;20032;-88
2023/09/05 10:53:10;;;;;;;11.77;9.43;;;;;;;23.97;94.93;100973.78;5054430;28;20106;-89
2023/09/05 10:55:50;;;;;;;12.35;8.65;;;;;;;25.52;83.71;100977.34;5038377;28;20033;-89
2023/09/05 10:58:56;;;;;;;11.20;9.10;;;;;;;25.63;79.48;100988.09;5070486;28;20053;-89
2023/09/05 11:01:29;;;;;;;9.63;8.63;;;;;;;25.92;80.69;100997.84;5054557;28;20103;-89
2023/09/05 11:04:19;;;;;;;10.27;8.73;;;;;;;24.89;83.35;100991.88;5054781;28;20037;-89
2023/09/05 11:06:58;;;;;;;9.73;7.60;;;;;;;25.59;81.95;100989.75;5063213;28;20072;-89
2023/09/05 11:09:27;;;;;;;7.88;7.07;;;;;;;25.68;79.60;100998.31;5038230;28;20041;-88
2023/09/05 11:11:53;;;;;;;8.35;7.07;;;;;;;25.71;77.81;100983.19;5054126;28;20032;-89